Red Hook — WDG6782 — position and weather

sailwx.info

Track history (hours):
 
Tides and Currents Weather Stations Pressure Air Temp Water Temp Dewpoint Dewpoint Depression Visibility Wind Speed Wind Dir Waves Ship Positions

Red Hook

Owner: Vane Line Bunkering Inc, Philadelphia, PA. More information available from US FCC via Universal Licensing System and Coast Guard Vessel Documentation Center.

Last reported at 2018-Jun-22 12:43 UTC. Time now 2018-Jun-22 13:22 UTC.
Position N 32°50' W 079°54'.

Length 27 m; draft 4 m.

Type: Tow > 200 m length. MMSI: 367560590.

Date/timePositionNaut miles runAvg speedWind from/ knotsBaromVisibWave heightAir tempDewpointWater temp
2018-Jun-22 12:43N 32°50' W 079°54'0 0.1
2018-Jun-22 10:37N 32°50' W 079°54'2 4.7
2018-Jun-22 10:14N 32°49' W 079°56'1 0.1
2018-Jun-22 06:01N 32°50' W 079°56'0 0.0
2018-Jun-22 02:58N 32°50' W 079°56'0 0.0
2018-Jun-22 02:13N 32°50' W 079°56'0 0.0
2018-Jun-22 01:58N 32°50' W 079°56'0 0.0
2018-Jun-22 01:28N 32°50' W 079°56'0 0.0
2018-Jun-22 00:58N 32°50' W 079°56'0 0.0
2018-Jun-22 00:22N 32°50' W 079°56'0 0.0
2018-Jun-21 23:58N 32°50' W 079°56'0 0.0
2018-Jun-21 23:28N 32°50' W 079°56'0 0.0
2018-Jun-21 22:37N 32°50' W 079°56'0 0.0
2018-Jun-21 22:28N 32°50' W 079°56'0 0.0
2018-Jun-21 21:58N 32°50' W 079°56'1 1.5
2018-Jun-21 21:29N 32°50' W 079°57'1 0.1
2018-Jun-21 15:57N 32°50' W 079°56'3 0.6
2018-Jun-21 10:51N 32°47' W 079°55'2 6.8
2018-Jun-21 10:30N 32°49' W 079°56'0 0.9
2018-Jun-21 10:00N 32°50' W 079°56'0 0.0
2018-Jun-21 09:30N 32°50' W 079°56'0 0.0
2018-Jun-21 08:51N 32°50' W 079°56'0 0.0
2018-Jun-21 08:24N 32°50' W 079°56'0 0.0
2018-Jun-21 08:00N 32°50' W 079°56'0 0.0
2018-Jun-21 07:27N 32°50' W 079°56'0 0.0
2018-Jun-21 07:00N 32°50' W 079°56'0 0.0
2018-Jun-21 06:30N 32°50' W 079°56'0 0.0
2018-Jun-21 06:00N 32°50' W 079°56'0 0.0
2018-Jun-21 05:30N 32°50' W 079°56'0 0.0
2018-Jun-21 04:57N 32°50' W 079°56'0 0.0
2018-Jun-21 04:21N 32°50' W 079°56'0 0.0
2018-Jun-21 04:00N 32°50' W 079°56'0 0.0
2018-Jun-21 03:30N 32°50' W 079°56'0 0.0
2018-Jun-21 03:00N 32°50' W 079°56'0 0.0
2018-Jun-21 02:30N 32°50' W 079°56'0 0.0
2018-Jun-21 02:00N 32°50' W 079°56'0 0.0
2018-Jun-21 01:30N 32°50' W 079°56'0 0.0
2018-Jun-20 20:54N 32°49' W 079°56'1 0.1
2018-Jun-20 15:07N 32°50' W 079°57'1 0.1
2018-Jun-20 07:53N 32°50' W 079°56'3 7.8
2018-Jun-20 07:30N 32°47' W 079°55'2 2.9
2018-Jun-20 06:54N 32°46' W 079°53'0 0.2
2018-Jun-20 06:30N 32°46' W 079°53'0 0.0
2018-Jun-20 06:00N 32°46' W 079°53'0 0.0
2018-Jun-20 05:27N 32°46' W 079°53'0 0.0
2018-Jun-20 05:00N 32°46' W 079°53'0 0.0
2018-Jun-20 02:48N 32°46' W 079°53'0 0.0
2018-Jun-20 02:27N 32°46' W 079°53'0 0.1
2018-Jun-20 01:33N 32°46' W 079°53'0 2.4
2018-Jun-20 01:31N 32°46' W 079°53'3 4.8
2018-Jun-20 00:54N 32°48' W 079°56'0 0.0
2018-Jun-20 00:30N 32°48' W 079°56'0 0.0
2018-Jun-20 00:00N 32°48' W 079°56'0 0.0
2018-Jun-19 23:06N 32°48' W 079°56'0 0.0
2018-Jun-19 22:54N 32°48' W 079°56'0 0.0
2018-Jun-19 22:27N 32°48' W 079°56'0 0.0
2018-Jun-19 21:54N 32°48' W 079°56'0 0.0
2018-Jun-19 21:27N 32°48' W 079°56'0 0.0
2018-Jun-19 20:54N 32°48' W 079°56'0 0.0
2018-Jun-19 20:24N 32°48' W 079°56'0 0.1
2018-Jun-19 20:00N 32°48' W 079°56'1 1.4
2018-Jun-19 19:30N 32°47' W 079°55'2 0.4
2018-Jun-19 13:56N 32°49' W 079°56'0 0.1
2018-Jun-19 09:25N 32°50' W 079°56'0 0.0
2018-Jun-19 03:31N 32°50' W 079°56'0 5.5
2018-Jun-19 03:28N 32°50' W 079°56'0 0.1
2018-Jun-18 19:42N 32°50' W 079°56'0 0.1
2018-Jun-18 14:57N 32°50' W 079°56'0 0.4
2018-Jun-18 14:27N 32°50' W 079°56'0 0.0
2018-Jun-18 12:39N 32°50' W 079°56'0 0.0
2018-Jun-18 12:30N 32°50' W 079°56'0 0.0
2018-Jun-18 11:03N 32°50' W 079°56'0 0.0
2018-Jun-17 23:31N 32°50' W 079°56'0 0.0
2018-Jun-17 23:31N 32°50' W 079°56'1 0.1
2018-Jun-17 12:52N 32°50' W 079°56'2 6.5
2018-Jun-17 12:30N 32°48' W 079°55'2 4.5
2018-Jun-17 11:57N 32°46' W 079°53'0 0.1
2018-Jun-17 11:27N 32°46' W 079°53'0 0.3
2018-Jun-17 10:39N 32°46' W 079°53'0 0.4
2018-Jun-17 10:30N 32°46' W 079°53'0 0.2
2018-Jun-17 10:00N 32°46' W 079°53'0 0.0
2018-Jun-17 09:24N 32°46' W 079°53'0 0.1
2018-Jun-17 09:00N 32°46' W 079°53'2 4.4
2018-Jun-17 08:30N 32°47' W 079°55'3 5.9
2018-Jun-17 08:00N 32°50' W 079°56'0 0.0
2018-Jun-17 06:09N 32°50' W 079°56'0 0.0
2018-Jun-17 05:51N 32°50' W 079°56'0 0.0
2018-Jun-17 05:30N 32°50' W 079°56'0 0.0
2018-Jun-17 04:57N 32°50' W 079°56'0 0.0
2018-Jun-17 04:30N 32°50' W 079°56'0 0.0
2018-Jun-17 04:00N 32°50' W 079°56'0 0.0
2018-Jun-17 03:21N 32°50' W 079°56'0 0.0
2018-Jun-17 03:00N 32°50' W 079°56'0 0.0
2018-Jun-17 02:30N 32°50' W 079°56'0 0.0
2018-Jun-17 02:00N 32°50' W 079°56'0 0.0
2018-Jun-17 01:30N 32°50' W 079°56'0 0.0
2018-Jun-17 00:57N 32°50' W 079°56'0 0.0
2018-Jun-16 19:34N 32°50' W 079°56'0 1.0
2018-Jun-16 19:31N 32°50' W 079°56'1 1.2
2018-Jun-16 18:57N 32°50' W 079°56'0 0.1
2018-Jun-16 17:52N 32°50' W 079°57'0 0.0
2018-Jun-16 17:25N 32°50' W 079°57'0 0.0
2018-Jun-15 23:13N 32°50' W 079°56'2 6.2
2018-Jun-15 22:57N 32°49' W 079°55'1 0.3
2018-Jun-15 18:55N 32°50' W 079°54'1 1.6
2018-Jun-15 18:26N 32°49' W 079°54'2 1.2
2018-Jun-15 17:13N 32°50' W 079°56'0 0.0
2018-Jun-15 17:01N 32°50' W 079°56'0 0.0
2018-Jun-15 15:37N 32°50' W 079°56'0 0.0
2018-Jun-15 15:25N 32°50' W 079°56'0 0.0
2018-Jun-15 15:01N 32°50' W 079°56'0 0.0
2018-Jun-15 14:28N 32°50' W 079°56'0 0.0
2018-Jun-15 13:40N 32°50' W 079°56'0 1.7
2018-Jun-15 13:30N 32°50' W 079°56'1 0.0
2018-Jun-14 10:33N 32°50' W 079°57'0 0.1
2018-Jun-14 03:28N 32°50' W 079°56'0 0.1
2018-Jun-14 01:03N 32°50' W 079°56'0 0.0
2018-Jun-14 01:00N 32°50' W 079°56'0 0.0
2018-Jun-14 00:30N 32°50' W 079°56'0 0.0
2018-Jun-14 00:00N 32°50' W 079°56'0 0.7
2018-Jun-13 23:29N 32°50' W 079°56'2 0.3
2018-Jun-13 16:26N 32°50' W 079°53'0 0.0
2018-Jun-13 15:53N 32°50' W 079°53'0 0.0
2018-Jun-13 14:59N 32°50' W 079°53'0 0.0
2018-Jun-13 13:14N 32°50' W 079°53'0 0.1
2018-Jun-13 12:53N 32°50' W 079°53'2 5.5
2018-Jun-13 12:30N 32°49' W 079°56'1 0.4
2018-Jun-13 10:59N 32°50' W 079°56'0 0.0
2018-Jun-13 10:29N 32°50' W 079°56'0 0.0
2018-Jun-13 08:53N 32°50' W 079°56'0 0.0
2018-Jun-13 08:29N 32°50' W 079°56'0 0.0
2018-Jun-13 04:10N 32°49' W 079°56'1 5.3
2018-Jun-13 03:59N 32°49' W 079°55'3 5.9
2018-Jun-13 03:31N 32°46' W 079°53'1 0.7
2018-Jun-13 02:18N 32°46' W 079°53'0 0.1
2018-Jun-13 01:54N 32°46' W 079°53'0 0.1
2018-Jun-13 00:18N 32°46' W 079°53'0 0.0
2018-Jun-12 22:18N 32°46' W 079°53'0 0.3
2018-Jun-12 21:43N 32°46' W 079°53'1 5.9
2018-Jun-12 21:30N 32°47' W 079°54'3 6.2
2018-Jun-12 21:00N 32°50' W 079°56'0 0.2
2018-Jun-12 20:26N 32°50' W 079°56'0 0.0
2018-Jun-12 18:02N 32°50' W 079°56'0 0.0
2018-Jun-12 17:41N 32°50' W 079°56'0 0.0
2018-Jun-12 17:29N 32°50' W 079°56'0 0.0
2018-Jun-12 14:55N 32°50' W 079°56'  
Track history (hours):
 
Tides and Currents Weather Stations Pressure Air Temp Water Temp Dewpoint Dewpoint Depression Visibility Wind Speed Wind Dir Waves Ship Positions

Red Hook

Owner: Vane Line Bunkering Inc, Philadelphia, PA. More information available from US FCC via Universal Licensing System and Coast Guard Vessel Documentation Center.

Last reported at 2018-Jun-22 12:43 UTC. Time now 2018-Jun-22 13:22 UTC.
Position N 32°50' W 079°54'.

Length 27 m; draft 4 m.

Type: Tow > 200 m length. MMSI: 367560590.

Date/timePositionNaut miles runAvg speedWind from/ knotsBaromVisibWave heightAir tempDewpointWater temp
2018-Jun-22 12:43N 32°50' W 079°54'0 0.1
2018-Jun-22 10:37N 32°50' W 079°54'2 4.7
2018-Jun-22 10:14N 32°49' W 079°56'1 0.1
2018-Jun-22 06:01N 32°50' W 079°56'0 0.0
2018-Jun-22 02:58N 32°50' W 079°56'0 0.0
2018-Jun-22 02:13N 32°50' W 079°56'0 0.0
2018-Jun-22 01:58N 32°50' W 079°56'0 0.0
2018-Jun-22 01:28N 32°50' W 079°56'0 0.0
2018-Jun-22 00:58N 32°50' W 079°56'0 0.0
2018-Jun-22 00:22N 32°50' W 079°56'0 0.0
2018-Jun-21 23:58N 32°50' W 079°56'0 0.0
2018-Jun-21 23:28N 32°50' W 079°56'0 0.0
2018-Jun-21 22:37N 32°50' W 079°56'0 0.0
2018-Jun-21 22:28N 32°50' W 079°56'0 0.0
2018-Jun-21 21:58N 32°50' W 079°56'1 1.5
2018-Jun-21 21:29N 32°50' W 079°57'1 0.1
2018-Jun-21 15:57N 32°50' W 079°56'3 0.6
2018-Jun-21 10:51N 32°47' W 079°55'2 6.8
2018-Jun-21 10:30N 32°49' W 079°56'0 0.9
2018-Jun-21 10:00N 32°50' W 079°56'0 0.0
2018-Jun-21 09:30N 32°50' W 079°56'0 0.0
2018-Jun-21 08:51N 32°50' W 079°56'0 0.0
2018-Jun-21 08:24N 32°50' W 079°56'0 0.0
2018-Jun-21 08:00N 32°50' W 079°56'0 0.0
2018-Jun-21 07:27N 32°50' W 079°56'0 0.0
2018-Jun-21 07:00N 32°50' W 079°56'0 0.0
2018-Jun-21 06:30N 32°50' W 079°56'0 0.0
2018-Jun-21 06:00N 32°50' W 079°56'0 0.0
2018-Jun-21 05:30N 32°50' W 079°56'0 0.0
2018-Jun-21 04:57N 32°50' W 079°56'0 0.0
2018-Jun-21 04:21N 32°50' W 079°56'0 0.0
2018-Jun-21 04:00N 32°50' W 079°56'0 0.0
2018-Jun-21 03:30N 32°50' W 079°56'0 0.0
2018-Jun-21 03:00N 32°50' W 079°56'0 0.0
2018-Jun-21 02:30N 32°50' W 079°56'0 0.0
2018-Jun-21 02:00N 32°50' W 079°56'0 0.0
2018-Jun-21 01:30N 32°50' W 079°56'0 0.0
2018-Jun-20 20:54N 32°49' W 079°56'1 0.1
2018-Jun-20 15:07N 32°50' W 079°57'1 0.1
2018-Jun-20 07:53N 32°50' W 079°56'3 7.8
2018-Jun-20 07:30N 32°47' W 079°55'2 2.9
2018-Jun-20 06:54N 32°46' W 079°53'0 0.2
2018-Jun-20 06:30N 32°46' W 079°53'0 0.0
2018-Jun-20 06:00N 32°46' W 079°53'0 0.0
2018-Jun-20 05:27N 32°46' W 079°53'0 0.0
2018-Jun-20 05:00N 32°46' W 079°53'0 0.0
2018-Jun-20 02:48N 32°46' W 079°53'0 0.0
2018-Jun-20 02:27N 32°46' W 079°53'0 0.1
2018-Jun-20 01:33N 32°46' W 079°53'0 2.4
2018-Jun-20 01:31N 32°46' W 079°53'3 4.8
2018-Jun-20 00:54N 32°48' W 079°56'0 0.0
2018-Jun-20 00:30N 32°48' W 079°56'0 0.0
2018-Jun-20 00:00N 32°48' W 079°56'0 0.0
2018-Jun-19 23:06N 32°48' W 079°56'0 0.0
2018-Jun-19 22:54N 32°48' W 079°56'0 0.0
2018-Jun-19 22:27N 32°48' W 079°56'0 0.0
2018-Jun-19 21:54N 32°48' W 079°56'0 0.0
2018-Jun-19 21:27N 32°48' W 079°56'0 0.0
2018-Jun-19 20:54N 32°48' W 079°56'0 0.0
2018-Jun-19 20:24N 32°48' W 079°56'0 0.1
2018-Jun-19 20:00N 32°48' W 079°56'1 1.4
2018-Jun-19 19:30N 32°47' W 079°55'2 0.4
2018-Jun-19 13:56N 32°49' W 079°56'0 0.1
2018-Jun-19 09:25N 32°50' W 079°56'0 0.0
2018-Jun-19 03:31N 32°50' W 079°56'0 5.5
2018-Jun-19 03:28N 32°50' W 079°56'0 0.1
2018-Jun-18 19:42N 32°50' W 079°56'0 0.1
2018-Jun-18 14:57N 32°50' W 079°56'0 0.4
2018-Jun-18 14:27N 32°50' W 079°56'0 0.0
2018-Jun-18 12:39N 32°50' W 079°56'0 0.0
2018-Jun-18 12:30N 32°50' W 079°56'0 0.0
2018-Jun-18 11:03N 32°50' W 079°56'0 0.0
2018-Jun-17 23:31N 32°50' W 079°56'0 0.0
2018-Jun-17 23:31N 32°50' W 079°56'1 0.1
2018-Jun-17 12:52N 32°50' W 079°56'2 6.5
2018-Jun-17 12:30N 32°48' W 079°55'2 4.5
2018-Jun-17 11:57N 32°46' W 079°53'0 0.1
2018-Jun-17 11:27N 32°46' W 079°53'0 0.3
2018-Jun-17 10:39N 32°46' W 079°53'0 0.4
2018-Jun-17 10:30N 32°46' W 079°53'0 0.2
2018-Jun-17 10:00N 32°46' W 079°53'0 0.0
2018-Jun-17 09:24N 32°46' W 079°53'0 0.1
2018-Jun-17 09:00N 32°46' W 079°53'2 4.4
2018-Jun-17 08:30N 32°47' W 079°55'3 5.9
2018-Jun-17 08:00N 32°50' W 079°56'0 0.0
2018-Jun-17 06:09N 32°50' W 079°56'0 0.0
2018-Jun-17 05:51N 32°50' W 079°56'0 0.0
2018-Jun-17 05:30N 32°50' W 079°56'0 0.0
2018-Jun-17 04:57N 32°50' W 079°56'0 0.0
2018-Jun-17 04:30N 32°50' W 079°56'0 0.0
2018-Jun-17 04:00N 32°50' W 079°56'0 0.0
2018-Jun-17 03:21N 32°50' W 079°56'0 0.0
2018-Jun-17 03:00N 32°50' W 079°56'0 0.0
2018-Jun-17 02:30N 32°50' W 079°56'0 0.0
2018-Jun-17 02:00N 32°50' W 079°56'0 0.0
2018-Jun-17 01:30N 32°50' W 079°56'0 0.0
2018-Jun-17 00:57N 32°50' W 079°56'0 0.0
2018-Jun-16 19:34N 32°50' W 079°56'0 1.0
2018-Jun-16 19:31N 32°50' W 079°56'1 1.2
2018-Jun-16 18:57N 32°50' W 079°56'0 0.1
2018-Jun-16 17:52N 32°50' W 079°57'0 0.0
2018-Jun-16 17:25N 32°50' W 079°57'0 0.0
2018-Jun-15 23:13N 32°50' W 079°56'2 6.2
2018-Jun-15 22:57N 32°49' W 079°55'1 0.3
2018-Jun-15 18:55N 32°50' W 079°54'1 1.6
2018-Jun-15 18:26N 32°49' W 079°54'2 1.2
2018-Jun-15 17:13N 32°50' W 079°56'0 0.0
2018-Jun-15 17:01N 32°50' W 079°56'0 0.0
2018-Jun-15 15:37N 32°50' W 079°56'0 0.0
2018-Jun-15 15:25N 32°50' W 079°56'0 0.0
2018-Jun-15 15:01N 32°50' W 079°56'0 0.0
2018-Jun-15 14:28N 32°50' W 079°56'0 0.0
2018-Jun-15 13:40N 32°50' W 079°56'0 1.7
2018-Jun-15 13:30N 32°50' W 079°56'1 0.0
2018-Jun-14 10:33N 32°50' W 079°57'0 0.1
2018-Jun-14 03:28N 32°50' W 079°56'0 0.1
2018-Jun-14 01:03N 32°50' W 079°56'0 0.0
2018-Jun-14 01:00N 32°50' W 079°56'0 0.0
2018-Jun-14 00:30N 32°50' W 079°56'0 0.0
2018-Jun-14 00:00N 32°50' W 079°56'0 0.7
2018-Jun-13 23:29N 32°50' W 079°56'2 0.3
2018-Jun-13 16:26N 32°50' W 079°53'0 0.0
2018-Jun-13 15:53N 32°50' W 079°53'0 0.0
2018-Jun-13 14:59N 32°50' W 079°53'0 0.0
2018-Jun-13 13:14N 32°50' W 079°53'0 0.1
2018-Jun-13 12:53N 32°50' W 079°53'2 5.5
2018-Jun-13 12:30N 32°49' W 079°56'1 0.4
2018-Jun-13 10:59N 32°50' W 079°56'0 0.0
2018-Jun-13 10:29N 32°50' W 079°56'0 0.0
2018-Jun-13 08:53N 32°50' W 079°56'0 0.0
2018-Jun-13 08:29N 32°50' W 079°56'0 0.0
2018-Jun-13 04:10N 32°49' W 079°56'1 5.3
2018-Jun-13 03:59N 32°49' W 079°55'3 5.9
2018-Jun-13 03:31N 32°46' W 079°53'1 0.7
2018-Jun-13 02:18N 32°46' W 079°53'0 0.1
2018-Jun-13 01:54N 32°46' W 079°53'0 0.1
2018-Jun-13 00:18N 32°46' W 079°53'0 0.0
2018-Jun-12 22:18N 32°46' W 079°53'0 0.3
2018-Jun-12 21:43N 32°46' W 079°53'1 5.9
2018-Jun-12 21:30N 32°47' W 079°54'3 6.2
2018-Jun-12 21:00N 32°50' W 079°56'0 0.2
2018-Jun-12 20:26N 32°50' W 079°56'0 0.0
2018-Jun-12 18:02N 32°50' W 079°56'0 0.0
2018-Jun-12 17:41N 32°50' W 079°56'0 0.0
2018-Jun-12 17:29N 32°50' W 079°56'0 0.0
2018-Jun-12 14:55N 32°50' W 079°56'  

Dump ship's entire track history